sensor_id;sensor_type;location;lat;lon;timestamp;temperature;humidity
4759;DHT22;2393;50.560;12.636;2023-06-24T00:01:44;14.90;99.90
4759;DHT22;2393;50.560;12.636;2023-06-24T00:04:13;14.90;99.90
4759;DHT22;2393;50.560;12.636;2023-06-24T00:06:47;14.90;99.90
4759;DHT22;2393;50.560;12.636;2023-06-24T00:09:17;14.80;99.90
4759;DHT22;2393;50.560;12.636;2023-06-24T00:11:46;14.80;99.90
4759;DHT22;2393;50.560;12.636;2023-06-24T00:14:14;14.80;99.90
4759;DHT22;2393;50.560;12.636;2023-06-24T00:16:43;14.80;99.90
4759;DHT22;2393;50.560;12.636;2023-06-24T00:19:11;14.80;99.90
4759;DHT22;2393;50.560;12.636;2023-06-24T00:21:39;14.80;99.90
4759;DHT22;2393;50.560;12.636;2023-06-24T00:24:08;14.80;99.90
4759;DHT22;2393;50.560;12.636;2023-06-24T00:26:38;14.80;99.90
4759;DHT22;2393;50.560;12.636;2023-06-24T00:29:06;14.80;99.90
4759;DHT22;2393;50.560;12.636;2023-06-24T00:31:36;14.80;99.90
4759;DHT22;2393;50.560;12.636;2023-06-24T00:34:05;14.70;99.90
4759;DHT22;2393;50.560;12.636;2023-06-24T00:36:33;14.70;99.90
4759;DHT22;2393;50.560;12.636;2023-06-24T00:39:02;14.70;99.90
4759;DHT22;2393;50.560;12.636;2023-06-24T00:41:31;14.70;99.90
4759;DHT22;2393;50.560;12.636;2023-06-24T00:44:01;14.70;99.90
4759;DHT22;2393;50.560;12.636;2023-06-24T00:46:30;14.70;99.90
4759;DHT22;2393;50.560;12.636;2023-06-24T00:49:00;14.70;99.90
4759;DHT22;2393;50.560;12.636;2023-06-24T00:51:30;14.70;99.90
4759;DHT22;2393;50.560;12.636;2023-06-24T00:53:59;14.70;99.90
4759;DHT22;2393;50.560;12.636;2023-06-24T00:56:31;14.70;99.90
4759;DHT22;2393;50.560;12.636;2023-06-24T00:59:01;14.60;99.90
4759;DHT22;2393;50.560;12.636;2023-06-24T01:01:33;14.60;99.90
4759;DHT22;2393;50.560;12.636;2023-06-24T01:04:03;14.60;99.90
4759;DHT22;2393;50.560;12.636;2023-06-24T01:06:31;14.60;99.90
4759;DHT22;2393;50.560;12.636;2023-06-24T01:09:01;14.60;99.90
4759;DHT22;2393;50.560;12.636;2023-06-24T01:11:30;14.60;99.90
4759;DHT22;2393;50.560;12.636;2023-06-24T01:13:59;14.60;99.90
4759;DHT22;2393;50.560;12.636;2023-06-24T01:16:34;14.60;99.90
4759;DHT22;2393;50.560;12.636;2023-06-24T01:19:19;14.60;99.90
4759;DHT22;2393;50.560;12.636;2023-06-24T01:22:06;14.60;99.90
4759;DHT22;2393;50.560;12.636;2023-06-24T01:24:58;14.60;99.90
4759;DHT22;2393;50.560;12.636;2023-06-24T01:27:52;14.60;99.90
4759;DHT22;2393;50.560;12.636;2023-06-24T01:30:54;14.60;99.90
4759;DHT22;2393;50.560;12.636;2023-06-24T01:33:32;14.60;99.90
4759;DHT22;2393;50.560;12.636;2023-06-24T01:36:04;14.60;99.90
4759;DHT22;2393;50.560;12.636;2023-06-24T01:38:36;14.70;99.90
4759;DHT22;2393;50.560;12.636;2023-06-24T01:41:06;14.70;99.90
4759;DHT22;2393;50.560;12.636;2023-06-24T01:43:36;14.70;99.90
4759;DHT22;2393;50.560;12.636;2023-06-24T01:46:06;14.70;99.90
4759;DHT22;2393;50.560;12.636;2023-06-24T01:48:37;14.70;99.90
4759;DHT22;2393;50.560;12.636;2023-06-24T01:51:08;14.70;99.90
4759;DHT22;2393;50.560;12.636;2023-06-24T01:53:39;14.70;99.90
4759;DHT22;2393;50.560;12.636;2023-06-24T01:56:12;14.70;99.90
4759;DHT22;2393;50.560;12.636;2023-06-24T01:58:45;14.80;99.90
4759;DHT22;2393;50.560;12.636;2023-06-24T02:01:15;14.70;99.90
4759;DHT22;2393;50.560;12.636;2023-06-24T02:03:46;14.80;99.90
4759;DHT22;2393;50.560;12.636;2023-06-24T02:06:16;14.80;99.90
4759;DHT22;2393;50.560;12.636;2023-06-24T02:08:48;14.80;99.90
4759;DHT22;2393;50.560;12.636;2023-06-24T02:11:20;14.90;99.90
4759;DHT22;2393;50.560;12.636;2023-06-24T02:13:51;14.80;99.90
4759;DHT22;2393;50.560;12.636;2023-06-24T02:16:21;14.90;99.90
4759;DHT22;2393;50.560;12.636;2023-06-24T02:18:51;14.80;99.90
4759;DHT22;2393;50.560;12.636;2023-06-24T02:21:20;14.80;99.90
4759;DHT22;2393;50.560;12.636;2023-06-24T02:23:51;14.80;99.90
4759;DHT22;2393;50.560;12.636;2023-06-24T02:26:20;14.80;99.90
4759;DHT22;2393;50.560;12.636;2023-06-24T02:28:50;14.80;99.90
4759;DHT22;2393;50.560;12.636;2023-06-24T02:31:20;14.80;99.90
4759;DHT22;2393;50.560;12.636;2023-06-24T02:33:48;14.90;99.90
4759;DHT22;2393;50.560;12.636;2023-06-24T02:36:20;14.90;99.90
4759;DHT22;2393;50.560;12.636;2023-06-24T02:38:48;14.90;99.90
4759;DHT22;2393;50.560;12.636;2023-06-24T02:41:17;14.90;99.90
4759;DHT22;2393;50.560;12.636;2023-06-24T02:43:45;14.90;99.90
4759;DHT22;2393;50.560;12.636;2023-06-24T02:46:14;14.90;99.90
4759;DHT22;2393;50.560;12.636;2023-06-24T02:48:44;14.80;99.90
4759;DHT22;2393;50.560;12.636;2023-06-24T02:51:13;14.80;99.90
4759;DHT22;2393;50.560;12.636;2023-06-24T02:53:43;14.80;99.90
4759;DHT22;2393;50.560;12.636;2023-06-24T02:56:15;14.80;99.90
4759;DHT22;2393;50.560;12.636;2023-06-24T02:58:48;14.70;99.90
4759;DHT22;2393;50.560;12.636;2023-06-24T03:01:21;14.70;99.90
4759;DHT22;2393;50.560;12.636;2023-06-24T03:03:54;14.70;99.90
4759;DHT22;2393;50.560;12.636;2023-06-24T03:06:23;14.60;99.90
4759;DHT22;2393;50.560;12.636;2023-06-24T03:09:00;14.70;99.90
4759;DHT22;2393;50.560;12.636;2023-06-24T03:11:31;14.70;99.90
4759;DHT22;2393;50.560;12.636;2023-06-24T03:13:59;14.70;99.90
4759;DHT22;2393;50.560;12.636;2023-06-24T03:16:36;14.70;99.90
4759;DHT22;2393;50.560;12.636;2023-06-24T03:19:11;14.70;99.90
4759;DHT22;2393;50.560;12.636;2023-06-24T03:21:39;14.70;99.90
4759;DHT22;2393;50.560;12.636;2023-06-24T03:24:12;14.80;99.90
4759;DHT22;2393;50.560;12.636;2023-06-24T03:26:43;14.80;99.90
4759;DHT22;2393;50.560;12.636;2023-06-24T03:29:13;14.80;99.90
4759;DHT22;2393;50.560;12.636;2023-06-24T03:31:51;14.80;99.90
4759;DHT22;2393;50.560;12.636;2023-06-24T03:34:25;14.90;99.90
4759;DHT22;2393;50.560;12.636;2023-06-24T03:36:54;14.90;99.90
4759;DHT22;2393;50.560;12.636;2023-06-24T03:39:25;14.90;99.90
4759;DHT22;2393;50.560;12.636;2023-06-24T03:41:53;14.80;99.90
4759;DHT22;2393;50.560;12.636;2023-06-24T03:44:21;14.90;99.90
4759;DHT22;2393;50.560;12.636;2023-06-24T03:46:49;14.90;99.90
4759;DHT22;2393;50.560;12.636;2023-06-24T03:49:17;14.90;99.90
4759;DHT22;2393;50.560;12.636;2023-06-24T03:51:47;14.90;99.90
4759;DHT22;2393;50.560;12.636;2023-06-24T03:54:16;14.90;99.90
4759;DHT22;2393;50.560;12.636;2023-06-24T03:56:45;14.90;99.90
4759;DHT22;2393;50.560;12.636;2023-06-24T03:59:14;15.00;99.90
4759;DHT22;2393;50.560;12.636;2023-06-24T04:01:42;15.00;99.90
4759;DHT22;2393;50.560;12.636;2023-06-24T04:04:10;15.10;99.90
4759;DHT22;2393;50.560;12.636;2023-06-24T04:06:38;15.10;99.90
4759;DHT22;2393;50.560;12.636;2023-06-24T04:09:07;15.20;99.90
4759;DHT22;2393;50.560;12.636;2023-06-24T04:11:36;15.20;99.90
4759;DHT22;2393;50.560;12.636;2023-06-24T04:14:06;15.20;99.90
4759;DHT22;2393;50.560;12.636;2023-06-24T04:16:36;15.30;99.90
4759;DHT22;2393;50.560;12.636;2023-06-24T04:19:04;15.40;99.90
4759;DHT22;2393;50.560;12.636;2023-06-24T04:21:32;15.50;99.90
4759;DHT22;2393;50.560;12.636;2023-06-24T04:24:01;15.50;99.90
4759;DHT22;2393;50.560;12.636;2023-06-24T04:26:30;15.50;99.90
4759;DHT22;2393;50.560;12.636;2023-06-24T04:28:58;15.50;99.90
4759;DHT22;2393;50.560;12.636;2023-06-24T04:31:27;15.50;99.90
4759;DHT22;2393;50.560;12.636;2023-06-24T04:33:55;15.40;99.90
4759;DHT22;2393;50.560;12.636;2023-06-24T04:36:24;15.40;99.90
4759;DHT22;2393;50.560;12.636;2023-06-24T04:38:52;15.40;99.90
4759;DHT22;2393;50.560;12.636;2023-06-24T04:41:20;15.40;99.90
4759;DHT22;2393;50.560;12.636;2023-06-24T04:43:48;15.40;99.90
4759;DHT22;2393;50.560;12.636;2023-06-24T04:46:16;15.50;99.90
4759;DHT22;2393;50.560;12.636;2023-06-24T04:48:46;15.50;99.90
4759;DHT22;2393;50.560;12.636;2023-06-24T04:51:14;15.50;99.90
4759;DHT22;2393;50.560;12.636;2023-06-24T04:53:43;15.60;99.90
4759;DHT22;2393;50.560;12.636;2023-06-24T04:56:11;15.60;99.90
4759;DHT22;2393;50.560;12.636;2023-06-24T04:58:39;15.60;99.90
4759;DHT22;2393;50.560;12.636;2023-06-24T05:01:07;15.60;99.90
4759;DHT22;2393;50.560;12.636;2023-06-24T05:03:35;15.70;99.90
4759;DHT22;2393;50.560;12.636;2023-06-24T05:06:05;15.70;99.90
4759;DHT22;2393;50.560;12.636;2023-06-24T05:08:33;15.80;99.90
4759;DHT22;2393;50.560;12.636;2023-06-24T05:11:01;15.80;99.90
4759;DHT22;2393;50.560;12.636;2023-06-24T05:13:29;15.80;99.90
4759;DHT22;2393;50.560;12.636;2023-06-24T05:15:57;15.80;99.90
4759;DHT22;2393;50.560;12.636;2023-06-24T05:18:25;15.90;99.90
4759;DHT22;2393;50.560;12.636;2023-06-24T05:20:54;15.90;99.90
4759;DHT22;2393;50.560;12.636;2023-06-24T05:23:23;15.90;99.90
4759;DHT22;2393;50.560;12.636;2023-06-24T05:25:51;15.90;99.90
4759;DHT22;2393;50.560;12.636;2023-06-24T05:28:19;16.00;99.90
4759;DHT22;2393;50.560;12.636;2023-06-24T05:30:48;16.00;99.90
4759;DHT22;2393;50.560;12.636;2023-06-24T05:33:16;16.10;99.90
4759;DHT22;2393;50.560;12.636;2023-06-24T05:35:44;16.10;99.90
4759;DHT22;2393;50.560;12.636;2023-06-24T05:38:12;16.20;99.90
4759;DHT22;2393;50.560;12.636;2023-06-24T05:40:41;16.30;99.90
4759;DHT22;2393;50.560;12.636;2023-06-24T05:43:10;16.30;99.90
4759;DHT22;2393;50.560;12.636;2023-06-24T05:45:38;16.40;99.90
4759;DHT22;2393;50.560;12.636;2023-06-24T05:48:06;16.50;99.90
4759;DHT22;2393;50.560;12.636;2023-06-24T05:50:35;16.60;99.90
4759;DHT22;2393;50.560;12.636;2023-06-24T05:53:03;16.70;99.90
4759;DHT22;2393;50.560;12.636;2023-06-24T05:55:31;16.70;99.90
4759;DHT22;2393;50.560;12.636;2023-06-24T05:58:01;16.80;99.90
4759;DHT22;2393;50.560;12.636;2023-06-24T06:00:30;16.80;99.90
4759;DHT22;2393;50.560;12.636;2023-06-24T06:02:58;16.80;99.90
4759;DHT22;2393;50.560;12.636;2023-06-24T06:05:26;16.90;99.90
4759;DHT22;2393;50.560;12.636;2023-06-24T06:07:54;17.20;99.90
4759;DHT22;2393;50.560;12.636;2023-06-24T06:10:23;17.40;99.90
4759;DHT22;2393;50.560;12.636;2023-06-24T06:12:51;17.60;99.90
4759;DHT22;2393;50.560;12.636;2023-06-24T06:15:22;17.70;99.90
4759;DHT22;2393;50.560;12.636;2023-06-24T06:17:52;17.70;99.90
4759;DHT22;2393;50.560;12.636;2023-06-24T06:20:20;17.80;99.90
4759;DHT22;2393;50.560;12.636;2023-06-24T06:22:49;17.80;99.90
4759;DHT22;2393;50.560;12.636;2023-06-24T06:25:18;17.80;99.90
4759;DHT22;2393;50.560;12.636;2023-06-24T06:27:46;18.10;99.90
4759;DHT22;2393;50.560;12.636;2023-06-24T06:30:14;18.40;99.90
4759;DHT22;2393;50.560;12.636;2023-06-24T06:32:44;18.80;99.90
4759;DHT22;2393;50.560;12.636;2023-06-24T06:35:12;19.20;99.90
4759;DHT22;2393;50.560;12.636;2023-06-24T06:37:40;19.50;99.90
4759;DHT22;2393;50.560;12.636;2023-06-24T06:40:09;19.60;99.90
4759;DHT22;2393;50.560;12.636;2023-06-24T06:42:37;19.60;99.90
4759;DHT22;2393;50.560;12.636;2023-06-24T06:45:06;19.80;99.90
4759;DHT22;2393;50.560;12.636;2023-06-24T06:47:34;20.00;99.90
4759;DHT22;2393;50.560;12.636;2023-06-24T06:50:04;20.00;99.90
4759;DHT22;2393;50.560;12.636;2023-06-24T06:52:33;20.00;99.90
4759;DHT22;2393;50.560;12.636;2023-06-24T06:55:01;20.10;99.90
4759;DHT22;2393;50.560;12.636;2023-06-24T06:57:29;20.20;99.90
4759;DHT22;2393;50.560;12.636;2023-06-24T06:59:57;20.50;99.90
4759;DHT22;2393;50.560;12.636;2023-06-24T07:02:25;20.80;99.90
4759;DHT22;2393;50.560;12.636;2023-06-24T07:04:53;21.20;99.90
4759;DHT22;2393;50.560;12.636;2023-06-24T07:07:23;21.60;99.90
4759;DHT22;2393;50.560;12.636;2023-06-24T07:09:51;22.00;99.90
4759;DHT22;2393;50.560;12.636;2023-06-24T07:12:19;22.30;99.90
4759;DHT22;2393;50.560;12.636;2023-06-24T07:14:48;22.50;99.90
4759;DHT22;2393;50.560;12.636;2023-06-24T07:17:16;22.80;99.90
4759;DHT22;2393;50.560;12.636;2023-06-24T07:19:44;23.00;99.90
4759;DHT22;2393;50.560;12.636;2023-06-24T07:22:12;23.10;99.90
4759;DHT22;2393;50.560;12.636;2023-06-24T07:24:42;23.10;99.90
4759;DHT22;2393;50.560;12.636;2023-06-24T07:27:10;23.00;99.90
4759;DHT22;2393;50.560;12.636;2023-06-24T07:29:39;22.90;99.90
4759;DHT22;2393;50.560;12.636;2023-06-24T07:32:08;22.70;99.90
4759;DHT22;2393;50.560;12.636;2023-06-24T07:34:36;22.60;99.90
4759;DHT22;2393;50.560;12.636;2023-06-24T07:37:04;22.50;99.90
4759;DHT22;2393;50.560;12.636;2023-06-24T07:39:51;22.30;99.90
4759;DHT22;2393;50.560;12.636;2023-06-24T07:42:19;22.00;99.90
4759;DHT22;2393;50.560;12.636;2023-06-24T07:44:47;21.80;99.90
4759;DHT22;2393;50.560;12.636;2023-06-24T07:47:16;21.60;99.90
4759;DHT22;2393;50.560;12.636;2023-06-24T07:49:45;21.40;99.90
4759;DHT22;2393;50.560;12.636;2023-06-24T07:52:13;21.40;99.90
4759;DHT22;2393;50.560;12.636;2023-06-24T07:54:42;21.30;99.90
4759;DHT22;2393;50.560;12.636;2023-06-24T07:57:12;21.30;99.90
4759;DHT22;2393;50.560;12.636;2023-06-24T07:59:40;21.30;99.90
4759;DHT22;2393;50.560;12.636;2023-06-24T08:02:08;21.40;99.90
4759;DHT22;2393;50.560;12.636;2023-06-24T08:04:36;21.60;99.90
4759;DHT22;2393;50.560;12.636;2023-06-24T08:07:05;21.90;99.90
4759;DHT22;2393;50.560;12.636;2023-06-24T08:09:33;22.30;99.90
4759;DHT22;2393;50.560;12.636;2023-06-24T08:12:01;22.60;99.90
4759;DHT22;2393;50.560;12.636;2023-06-24T08:14:31;22.90;99.90
4759;DHT22;2393;50.560;12.636;2023-06-24T08:16:59;23.20;99.90
4759;DHT22;2393;50.560;12.636;2023-06-24T08:19:27;23.30;99.90
4759;DHT22;2393;50.560;12.636;2023-06-24T08:21:55;23.30;99.90
4759;DHT22;2393;50.560;12.636;2023-06-24T08:24:23;23.20;99.90
4759;DHT22;2393;50.560;12.636;2023-06-24T08:26:51;23.00;99.90
4759;DHT22;2393;50.560;12.636;2023-06-24T08:29:20;22.80;99.90
4759;DHT22;2393;50.560;12.636;2023-06-24T08:31:49;22.90;99.90
4759;DHT22;2393;50.560;12.636;2023-06-24T08:34:17;23.00;99.90
4759;DHT22;2393;50.560;12.636;2023-06-24T08:36:46;23.20;99.90
4759;DHT22;2393;50.560;12.636;2023-06-24T08:39:14;23.30;99.90
4759;DHT22;2393;50.560;12.636;2023-06-24T08:41:42;23.20;99.90
4759;DHT22;2393;50.560;12.636;2023-06-24T08:44:11;23.30;99.90
4759;DHT22;2393;50.560;12.636;2023-06-24T08:46:39;23.10;99.90
4759;DHT22;2393;50.560;12.636;2023-06-24T08:49:19;23.10;99.90
4759;DHT22;2393;50.560;12.636;2023-06-24T08:51:58;23.20;99.90
4759;DHT22;2393;50.560;12.636;2023-06-24T08:54:28;23.40;99.90
4759;DHT22;2393;50.560;12.636;2023-06-24T08:56:57;23.70;99.90
4759;DHT22;2393;50.560;12.636;2023-06-24T08:59:28;23.90;99.90
4759;DHT22;2393;50.560;12.636;2023-06-24T09:01:56;23.70;99.90
4759;DHT22;2393;50.560;12.636;2023-06-24T09:04:26;23.60;99.90
4759;DHT22;2393;50.560;12.636;2023-06-24T09:06:54;23.80;99.90
4759;DHT22;2393;50.560;12.636;2023-06-24T09:09:23;23.80;99.90
4759;DHT22;2393;50.560;12.636;2023-06-24T09:11:51;23.50;99.90
4759;DHT22;2393;50.560;12.636;2023-06-24T09:14:20;23.20;99.90
4759;DHT22;2393;50.560;12.636;2023-06-24T09:16:52;23.10;99.90
4759;DHT22;2393;50.560;12.636;2023-06-24T09:19:21;23.40;99.90
4759;DHT22;2393;50.560;12.636;2023-06-24T09:21:51;23.70;99.90
4759;DHT22;2393;50.560;12.636;2023-06-24T09:24:19;24.20;99.90
4759;DHT22;2393;50.560;12.636;2023-06-24T09:26:47;24.50;99.90
4759;DHT22;2393;50.560;12.636;2023-06-24T09:29:16;24.60;99.90
4759;DHT22;2393;50.560;12.636;2023-06-24T09:31:50;24.60;99.90
4759;DHT22;2393;50.560;12.636;2023-06-24T09:34:19;24.30;99.90
4759;DHT22;2393;50.560;12.636;2023-06-24T09:36:53;24.20;99.90
4759;DHT22;2393;50.560;12.636;2023-06-24T09:39:22;24.30;99.90
4759;DHT22;2393;50.560;12.636;2023-06-24T09:41:56;24.30;99.90
4759;DHT22;2393;50.560;12.636;2023-06-24T09:44:25;24.30;99.90
4759;DHT22;2393;50.560;12.636;2023-06-24T09:46:54;24.40;99.90
4759;DHT22;2393;50.560;12.636;2023-06-24T09:49:23;24.40;99.90
4759;DHT22;2393;50.560;12.636;2023-06-24T09:51:56;24.50;99.90
4759;DHT22;2393;50.560;12.636;2023-06-24T09:54:26;24.70;99.90
4759;DHT22;2393;50.560;12.636;2023-06-24T09:57:02;24.90;99.90
4759;DHT22;2393;50.560;12.636;2023-06-24T09:59:31;25.00;99.90
4759;DHT22;2393;50.560;12.636;2023-06-24T10:02:02;25.00;99.90
4759;DHT22;2393;50.560;12.636;2023-06-24T10:04:31;25.00;99.90
4759;DHT22;2393;50.560;12.636;2023-06-24T10:07:03;25.10;99.90
4759;DHT22;2393;50.560;12.636;2023-06-24T10:09:32;25.10;99.90
4759;DHT22;2393;50.560;12.636;2023-06-24T10:12:00;25.20;99.90
4759;DHT22;2393;50.560;12.636;2023-06-24T10:14:28;25.30;99.90
4759;DHT22;2393;50.560;12.636;2023-06-24T10:17:02;25.30;99.90
4759;DHT22;2393;50.560;12.636;2023-06-24T10:19:30;25.40;99.90
4759;DHT22;2393;50.560;12.636;2023-06-24T10:22:08;25.50;99.90
4759;DHT22;2393;50.560;12.636;2023-06-24T10:24:39;25.70;99.90
4759;DHT22;2393;50.560;12.636;2023-06-24T10:27:13;25.70;99.90
4759;DHT22;2393;50.560;12.636;2023-06-24T10:29:46;25.90;99.90
4759;DHT22;2393;50.560;12.636;2023-06-24T10:32:14;25.90;99.90
4759;DHT22;2393;50.560;12.636;2023-06-24T10:34:43;26.00;99.90
4759;DHT22;2393;50.560;12.636;2023-06-24T10:37:17;26.10;99.90
4759;DHT22;2393;50.560;12.636;2023-06-24T10:39:48;25.80;99.90
4759;DHT22;2393;50.560;12.636;2023-06-24T10:42:36;25.80;99.90
4759;DHT22;2393;50.560;12.636;2023-06-24T10:45:19;25.70;99.90
4759;DHT22;2393;50.560;12.636;2023-06-24T10:47:48;25.70;99.90
4759;DHT22;2393;50.560;12.636;2023-06-24T10:50:19;25.70;99.90
4759;DHT22;2393;50.560;12.636;2023-06-24T10:52:50;25.60;99.90
4759;DHT22;2393;50.560;12.636;2023-06-24T10:55:23;25.60;99.90
4759;DHT22;2393;50.560;12.636;2023-06-24T10:57:52;25.50;99.90
4759;DHT22;2393;50.560;12.636;2023-06-24T11:00:20;25.60;99.90
4759;DHT22;2393;50.560;12.636;2023-06-24T11:02:49;25.60;99.90
4759;DHT22;2393;50.560;12.636;2023-06-24T11:05:17;25.50;99.90
4759;DHT22;2393;50.560;12.636;2023-06-24T11:07:46;25.30;99.90
4759;DHT22;2393;50.560;12.636;2023-06-24T11:10:15;25.20;99.90
4759;DHT22;2393;50.560;12.636;2023-06-24T11:12:44;25.20;99.90
4759;DHT22;2393;50.560;12.636;2023-06-24T11:15:13;25.20;99.90
4759;DHT22;2393;50.560;12.636;2023-06-24T11:17:41;25.20;99.90
4759;DHT22;2393;50.560;12.636;2023-06-24T11:20:12;25.20;99.90
4759;DHT22;2393;50.560;12.636;2023-06-24T11:22:41;25.20;99.90
4759;DHT22;2393;50.560;12.636;2023-06-24T11:25:16;25.20;99.90
4759;DHT22;2393;50.560;12.636;2023-06-24T11:27:44;25.20;99.90
4759;DHT22;2393;50.560;12.636;2023-06-24T11:30:14;25.30;99.90
4759;DHT22;2393;50.560;12.636;2023-06-24T11:32:43;25.40;99.90
4759;DHT22;2393;50.560;12.636;2023-06-24T11:35:13;25.40;99.90
4759;DHT22;2393;50.560;12.636;2023-06-24T11:37:42;25.70;99.90
4759;DHT22;2393;50.560;12.636;2023-06-24T11:40:12;25.90;99.90
4759;DHT22;2393;50.560;12.636;2023-06-24T11:42:45;26.10;99.90
4759;DHT22;2393;50.560;12.636;2023-06-24T11:45:19;26.00;99.90
4759;DHT22;2393;50.560;12.636;2023-06-24T11:47:49;26.00;99.90
4759;DHT22;2393;50.560;12.636;2023-06-24T11:50:17;26.00;99.90
4759;DHT22;2393;50.560;12.636;2023-06-24T11:52:47;26.10;99.90
4759;DHT22;2393;50.560;12.636;2023-06-24T11:55:17;26.10;99.90
4759;DHT22;2393;50.560;12.636;2023-06-24T11:57:54;26.40;99.90
4759;DHT22;2393;50.560;12.636;2023-06-24T12:00:24;26.40;99.90
4759;DHT22;2393;50.560;12.636;2023-06-24T12:02:53;26.30;99.90
4759;DHT22;2393;50.560;12.636;2023-06-24T12:05:29;26.30;99.90
4759;DHT22;2393;50.560;12.636;2023-06-24T12:07:59;26.50;99.90
4759;DHT22;2393;50.560;12.636;2023-06-24T12:10:28;26.70;99.90
4759;DHT22;2393;50.560;12.636;2023-06-24T12:12:58;26.90;99.90
4759;DHT22;2393;50.560;12.636;2023-06-24T12:15:26;26.90;99.90
4759;DHT22;2393;50.560;12.636;2023-06-24T12:17:55;26.90;99.10
4759;DHT22;2393;50.560;12.636;2023-06-24T12:20:24;26.90;97.50
4759;DHT22;2393;50.560;12.636;2023-06-24T12:23:00;26.90;98.30
4759;DHT22;2393;50.560;12.636;2023-06-24T12:25:28;27.00;98.60
4759;DHT22;2393;50.560;12.636;2023-06-24T12:27:57;27.20;99.60
4759;DHT22;2393;50.560;12.636;2023-06-24T12:30:27;27.30;99.90
4759;DHT22;2393;50.560;12.636;2023-06-24T12:32:55;27.60;99.60
4759;DHT22;2393;50.560;12.636;2023-06-24T12:35:23;27.80;96.20
4759;DHT22;2393;50.560;12.636;2023-06-24T12:37:53;27.80;95.90
4759;DHT22;2393;50.560;12.636;2023-06-24T12:40:21;27.60;96.90
4759;DHT22;2393;50.560;12.636;2023-06-24T12:42:49;27.70;96.80
4759;DHT22;2393;50.560;12.636;2023-06-24T12:45:18;27.70;97.10
4759;DHT22;2393;50.560;12.636;2023-06-24T12:47:46;27.90;97.40
4759;DHT22;2393;50.560;12.636;2023-06-24T12:50:15;28.00;97.80
4759;DHT22;2393;50.560;12.636;2023-06-24T12:52:43;28.20;96.90
4759;DHT22;2393;50.560;12.636;2023-06-24T12:55:12;28.20;98.60
4759;DHT22;2393;50.560;12.636;2023-06-24T12:57:43;28.40;98.60
4759;DHT22;2393;50.560;12.636;2023-06-24T13:00:12;28.50;96.50
4759;DHT22;2393;50.560;12.636;2023-06-24T13:02:42;28.50;95.90
4759;DHT22;2393;50.560;12.636;2023-06-24T13:05:11;28.60;96.70
4759;DHT22;2393;50.560;12.636;2023-06-24T13:07:40;28.50;96.10
4759;DHT22;2393;50.560;12.636;2023-06-24T13:10:09;28.40;96.60
4759;DHT22;2393;50.560;12.636;2023-06-24T13:12:38;28.50;95.30
4759;DHT22;2393;50.560;12.636;2023-06-24T13:15:07;28.60;96.20
4759;DHT22;2393;50.560;12.636;2023-06-24T13:17:36;28.40;94.80
4759;DHT22;2393;50.560;12.636;2023-06-24T13:20:07;28.20;96.20
4759;DHT22;2393;50.560;12.636;2023-06-24T13:22:35;28.20;95.70
4759;DHT22;2393;50.560;12.636;2023-06-24T13:25:05;28.10;97.00
4759;DHT22;2393;50.560;12.636;2023-06-24T13:27:33;28.30;98.20
4759;DHT22;2393;50.560;12.636;2023-06-24T13:30:06;28.30;96.90
4759;DHT22;2393;50.560;12.636;2023-06-24T13:32:34;28.50;96.60
4759;DHT22;2393;50.560;12.636;2023-06-24T13:35:03;28.60;96.70
4759;DHT22;2393;50.560;12.636;2023-06-24T13:37:33;28.70;96.90
4759;DHT22;2393;50.560;12.636;2023-06-24T13:40:01;28.80;95.70
4759;DHT22;2393;50.560;12.636;2023-06-24T13:42:30;28.80;95.10
4759;DHT22;2393;50.560;12.636;2023-06-24T13:44:58;28.90;95.80
4759;DHT22;2393;50.560;12.636;2023-06-24T13:47:26;29.00;96.00
4759;DHT22;2393;50.560;12.636;2023-06-24T13:49:54;29.10;95.50
4759;DHT22;2393;50.560;12.636;2023-06-24T13:52:22;29.20;95.40
4759;DHT22;2393;50.560;12.636;2023-06-24T13:54:52;29.10;94.90
4759;DHT22;2393;50.560;12.636;2023-06-24T13:57:20;29.20;94.50
4759;DHT22;2393;50.560;12.636;2023-06-24T13:59:48;29.20;95.90
4759;DHT22;2393;50.560;12.636;2023-06-24T14:02:16;29.30;95.40
4759;DHT22;2393;50.560;12.636;2023-06-24T14:04:47;29.20;94.60
4759;DHT22;2393;50.560;12.636;2023-06-24T14:07:15;29.10;95.70
4759;DHT22;2393;50.560;12.636;2023-06-24T14:09:44;28.80;94.90
4759;DHT22;2393;50.560;12.636;2023-06-24T14:12:13;28.80;95.40
4759;DHT22;2393;50.560;12.636;2023-06-24T14:14:41;28.80;95.10
4759;DHT22;2393;50.560;12.636;2023-06-24T14:17:09;28.70;95.90
4759;DHT22;2393;50.560;12.636;2023-06-24T14:19:39;28.60;95.50
4759;DHT22;2393;50.560;12.636;2023-06-24T14:22:08;28.60;95.10
4759;DHT22;2393;50.560;12.636;2023-06-24T14:24:36;28.60;95.10
4759;DHT22;2393;50.560;12.636;2023-06-24T14:27:06;28.30;93.70
4759;DHT22;2393;50.560;12.636;2023-06-24T14:29:36;28.10;94.20
4759;DHT22;2393;50.560;12.636;2023-06-24T14:32:05;28.10;93.90
4759;DHT22;2393;50.560;12.636;2023-06-24T14:34:33;28.10;94.20
4759;DHT22;2393;50.560;12.636;2023-06-24T14:37:02;28.20;94.40
4759;DHT22;2393;50.560;12.636;2023-06-24T14:39:30;28.40;94.90
4759;DHT22;2393;50.560;12.636;2023-06-24T14:41:58;28.40;94.00
4759;DHT22;2393;50.560;12.636;2023-06-24T14:44:26;28.50;94.80
4759;DHT22;2393;50.560;12.636;2023-06-24T14:46:56;28.60;95.20
4759;DHT22;2393;50.560;12.636;2023-06-24T14:49:24;28.50;95.00
4759;DHT22;2393;50.560;12.636;2023-06-24T14:51:52;28.30;95.10
4759;DHT22;2393;50.560;12.636;2023-06-24T14:54:20;28.30;95.00
4759;DHT22;2393;50.560;12.636;2023-06-24T14:56:48;28.20;94.70
4759;DHT22;2393;50.560;12.636;2023-06-24T14:59:16;28.20;95.40
4759;DHT22;2393;50.560;12.636;2023-06-24T15:01:44;28.20;94.60
4759;DHT22;2393;50.560;12.636;2023-06-24T15:04:14;28.10;94.30
4759;DHT22;2393;50.560;12.636;2023-06-24T15:06:42;28.00;94.10
4759;DHT22;2393;50.560;12.636;2023-06-24T15:09:10;27.90;94.00
4759;DHT22;2393;50.560;12.636;2023-06-24T15:11:38;27.80;94.70
4759;DHT22;2393;50.560;12.636;2023-06-24T15:14:06;27.70;94.40
4759;DHT22;2393;50.560;12.636;2023-06-24T15:16:34;27.70;94.40
4759;DHT22;2393;50.560;12.636;2023-06-24T15:19:02;27.70;95.00
4759;DHT22;2393;50.560;12.636;2023-06-24T15:21:31;27.70;94.80
4759;DHT22;2393;50.560;12.636;2023-06-24T15:24:03;27.50;95.10
4759;DHT22;2393;50.560;12.636;2023-06-24T15:26:31;27.60;95.60
4759;DHT22;2393;50.560;12.636;2023-06-24T15:29:00;27.70;95.40
4759;DHT22;2393;50.560;12.636;2023-06-24T15:31:28;27.60;95.20
4759;DHT22;2393;50.560;12.636;2023-06-24T15:33:56;27.50;95.50
4759;DHT22;2393;50.560;12.636;2023-06-24T15:36:24;27.50;96.20
4759;DHT22;2393;50.560;12.636;2023-06-24T15:38:57;27.30;95.80
4759;DHT22;2393;50.560;12.636;2023-06-24T15:41:25;27.30;95.20
4759;DHT22;2393;50.560;12.636;2023-06-24T15:43:53;27.30;94.70
4759;DHT22;2393;50.560;12.636;2023-06-24T15:46:21;27.20;95.40
4759;DHT22;2393;50.560;12.636;2023-06-24T15:48:50;27.20;94.80
4759;DHT22;2393;50.560;12.636;2023-06-24T15:51:18;27.20;94.90
4759;DHT22;2393;50.560;12.636;2023-06-24T15:53:47;27.20;95.20
4759;DHT22;2393;50.560;12.636;2023-06-24T15:56:16;27.10;95.60
4759;DHT22;2393;50.560;12.636;2023-06-24T15:58:44;27.00;95.10
4759;DHT22;2393;50.560;12.636;2023-06-24T16:01:14;26.90;96.50